sensor_id;sensor_type;location;lat;lon;timestamp;P1;durP1;ratioP1;P2;durP2;ratioP2
16031;SDS011;8120;48.308;8.914;2023-07-29T00:00:52;2.87;;;1.60;;
16031;SDS011;8120;48.308;8.914;2023-07-29T00:03:22;3.10;;;1.40;;
16031;SDS011;8120;48.308;8.914;2023-07-29T00:05:50;4.03;;;1.47;;
16031;SDS011;8120;48.308;8.914;2023-07-29T00:08:18;3.87;;;1.60;;
16031;SDS011;8120;48.308;8.914;2023-07-29T00:10:46;2.40;;;1.23;;
16031;SDS011;8120;48.308;8.914;2023-07-29T00:13:14;6.40;;;2.10;;
16031;SDS011;8120;48.308;8.914;2023-07-29T00:15:42;2.40;;;1.23;;
16031;SDS011;8120;48.308;8.914;2023-07-29T00:18:10;3.97;;;1.47;;
16031;SDS011;8120;48.308;8.914;2023-07-29T00:20:39;5.67;;;1.97;;
16031;SDS011;8120;48.308;8.914;2023-07-29T00:23:07;3.83;;;1.80;;
16031;SDS011;8120;48.308;8.914;2023-07-29T00:25:34;4.00;;;2.23;;
16031;SDS011;8120;48.308;8.914;2023-07-29T00:28:02;2.07;;;1.53;;
16031;SDS011;8120;48.308;8.914;2023-07-29T00:30:30;7.53;;;1.87;;
16031;SDS011;8120;48.308;8.914;2023-07-29T00:32:58;2.70;;;1.37;;
16031;SDS011;8120;48.308;8.914;2023-07-29T00:35:26;2.40;;;1.40;;
16031;SDS011;8120;48.308;8.914;2023-07-29T00:37:55;3.53;;;1.50;;
16031;SDS011;8120;48.308;8.914;2023-07-29T00:40:23;4.33;;;1.67;;
16031;SDS011;8120;48.308;8.914;2023-07-29T00:42:51;3.80;;;1.47;;
16031;SDS011;8120;48.308;8.914;2023-07-29T00:45:19;2.20;;;1.40;;
16031;SDS011;8120;48.308;8.914;2023-07-29T00:47:47;3.17;;;1.50;;
16031;SDS011;8120;48.308;8.914;2023-07-29T00:50:15;3.70;;;1.33;;
16031;SDS011;8120;48.308;8.914;2023-07-29T00:52:43;4.77;;;2.07;;
16031;SDS011;8120;48.308;8.914;2023-07-29T00:55:13;3.70;;;1.40;;
16031;SDS011;8120;48.308;8.914;2023-07-29T00:57:41;2.70;;;1.47;;
16031;SDS011;8120;48.308;8.914;2023-07-29T01:00:14;2.57;;;1.77;;
16031;SDS011;8120;48.308;8.914;2023-07-29T01:02:42;3.67;;;1.37;;
16031;SDS011;8120;48.308;8.914;2023-07-29T01:05:11;2.67;;;1.60;;
16031;SDS011;8120;48.308;8.914;2023-07-29T01:07:43;2.37;;;1.60;;
16031;SDS011;8120;48.308;8.914;2023-07-29T01:10:21;4.00;;;1.63;;
16031;SDS011;8120;48.308;8.914;2023-07-29T01:13:00;6.53;;;2.17;;
16031;SDS011;8120;48.308;8.914;2023-07-29T01:15:33;3.23;;;1.40;;
16031;SDS011;8120;48.308;8.914;2023-07-29T01:18:11;6.00;;;1.67;;
16031;SDS011;8120;48.308;8.914;2023-07-29T01:20:45;2.57;;;1.60;;
16031;SDS011;8120;48.308;8.914;2023-07-29T01:23:15;4.10;;;1.70;;
16031;SDS011;8120;48.308;8.914;2023-07-29T01:25:43;2.77;;;1.70;;
16031;SDS011;8120;48.308;8.914;2023-07-29T01:28:11;2.73;;;1.33;;
16031;SDS011;8120;48.308;8.914;2023-07-29T01:30:40;1.23;;;1.17;;
16031;SDS011;8120;48.308;8.914;2023-07-29T01:33:12;3.43;;;1.60;;
16031;SDS011;8120;48.308;8.914;2023-07-29T01:35:45;2.10;;;1.40;;
16031;SDS011;8120;48.308;8.914;2023-07-29T01:38:16;6.77;;;1.63;;
16031;SDS011;8120;48.308;8.914;2023-07-29T01:40:47;2.57;;;1.43;;
16031;SDS011;8120;48.308;8.914;2023-07-29T01:43:17;2.70;;;1.50;;
16031;SDS011;8120;48.308;8.914;2023-07-29T01:45:49;1.40;;;1.30;;
16031;SDS011;8120;48.308;8.914;2023-07-29T01:48:17;2.23;;;1.53;;
16031;SDS011;8120;48.308;8.914;2023-07-29T01:50:45;4.00;;;1.70;;
16031;SDS011;8120;48.308;8.914;2023-07-29T01:53:13;1.50;;;1.40;;
16031;SDS011;8120;48.308;8.914;2023-07-29T01:55:41;3.47;;;1.60;;
16031;SDS011;8120;48.308;8.914;2023-07-29T01:58:13;3.60;;;1.67;;
16031;SDS011;8120;48.308;8.914;2023-07-29T02:00:41;1.70;;;1.40;;
16031;SDS011;8120;48.308;8.914;2023-07-29T02:03:09;4.00;;;1.83;;
16031;SDS011;8120;48.308;8.914;2023-07-29T02:05:37;4.03;;;1.80;;
16031;SDS011;8120;48.308;8.914;2023-07-29T02:08:04;1.90;;;1.47;;
16031;SDS011;8120;48.308;8.914;2023-07-29T02:10:33;3.20;;;1.70;;
16031;SDS011;8120;48.308;8.914;2023-07-29T02:13:00;2.67;;;1.93;;
16031;SDS011;8120;48.308;8.914;2023-07-29T02:15:30;5.20;;;1.73;;
16031;SDS011;8120;48.308;8.914;2023-07-29T02:17:57;5.30;;;2.07;;
16031;SDS011;8120;48.308;8.914;2023-07-29T02:20:27;2.77;;;1.83;;
16031;SDS011;8120;48.308;8.914;2023-07-29T02:22:55;2.40;;;1.60;;
16031;SDS011;8120;48.308;8.914;2023-07-29T02:25:23;4.73;;;1.60;;
16031;SDS011;8120;48.308;8.914;2023-07-29T02:27:50;2.47;;;1.60;;
16031;SDS011;8120;48.308;8.914;2023-07-29T02:30:20;2.63;;;1.33;;
16031;SDS011;8120;48.308;8.914;2023-07-29T02:32:49;2.03;;;1.37;;
16031;SDS011;8120;48.308;8.914;2023-07-29T02:35:17;3.20;;;1.70;;
16031;SDS011;8120;48.308;8.914;2023-07-29T02:37:45;2.47;;;1.53;;
16031;SDS011;8120;48.308;8.914;2023-07-29T02:40:13;4.43;;;1.70;;
16031;SDS011;8120;48.308;8.914;2023-07-29T02:42:41;3.40;;;1.70;;
16031;SDS011;8120;48.308;8.914;2023-07-29T02:45:09;3.53;;;1.60;;
16031;SDS011;8120;48.308;8.914;2023-07-29T02:47:37;2.10;;;1.50;;
16031;SDS011;8120;48.308;8.914;2023-07-29T02:50:07;3.10;;;1.70;;
16031;SDS011;8120;48.308;8.914;2023-07-29T02:52:35;3.53;;;1.40;;
16031;SDS011;8120;48.308;8.914;2023-07-29T02:55:04;1.87;;;1.50;;
16031;SDS011;8120;48.308;8.914;2023-07-29T02:57:32;2.60;;;1.67;;
16031;SDS011;8120;48.308;8.914;2023-07-29T03:00:00;2.40;;;1.50;;
16031;SDS011;8120;48.308;8.914;2023-07-29T03:02:28;4.07;;;1.80;;
16031;SDS011;8120;48.308;8.914;2023-07-29T03:04:56;2.23;;;1.30;;
16031;SDS011;8120;48.308;8.914;2023-07-29T03:07:25;2.43;;;1.40;;
16031;SDS011;8120;48.308;8.914;2023-07-29T03:09:53;2.47;;;1.60;;
16031;SDS011;8120;48.308;8.914;2023-07-29T03:12:21;2.40;;;1.43;;
16031;SDS011;8120;48.308;8.914;2023-07-29T03:14:49;1.40;;;1.30;;
16031;SDS011;8120;48.308;8.914;2023-07-29T03:17:17;3.50;;;1.80;;
16031;SDS011;8120;48.308;8.914;2023-07-29T03:19:44;1.70;;;1.20;;
16031;SDS011;8120;48.308;8.914;2023-07-29T03:22:12;2.00;;;1.40;;
16031;SDS011;8120;48.308;8.914;2023-07-29T03:24:42;2.93;;;1.80;;
16031;SDS011;8120;48.308;8.914;2023-07-29T03:27:09;2.50;;;1.53;;
16031;SDS011;8120;48.308;8.914;2023-07-29T03:29:37;3.33;;;1.70;;
16031;SDS011;8120;48.308;8.914;2023-07-29T03:32:05;2.23;;;1.77;;
16031;SDS011;8120;48.308;8.914;2023-07-29T03:34:34;2.33;;;1.67;;
16031;SDS011;8120;48.308;8.914;2023-07-29T03:37:02;2.17;;;1.50;;
16031;SDS011;8120;48.308;8.914;2023-07-29T03:39:30;1.63;;;1.40;;
16031;SDS011;8120;48.308;8.914;2023-07-29T03:41:59;2.57;;;1.77;;
16031;SDS011;8120;48.308;8.914;2023-07-29T03:44:27;2.47;;;1.77;;
16031;SDS011;8120;48.308;8.914;2023-07-29T03:46:55;2.37;;;1.63;;
16031;SDS011;8120;48.308;8.914;2023-07-29T03:49:22;2.13;;;1.60;;
16031;SDS011;8120;48.308;8.914;2023-07-29T03:51:50;2.57;;;1.63;;
16031;SDS011;8120;48.308;8.914;2023-07-29T03:54:18;1.90;;;1.33;;
16031;SDS011;8120;48.308;8.914;2023-07-29T03:56:46;2.40;;;1.70;;
16031;SDS011;8120;48.308;8.914;2023-07-29T03:59:15;2.03;;;1.47;;
16031;SDS011;8120;48.308;8.914;2023-07-29T04:01:44;2.43;;;1.60;;
16031;SDS011;8120;48.308;8.914;2023-07-29T04:04:12;2.23;;;1.77;;
16031;SDS011;8120;48.308;8.914;2023-07-29T04:06:40;2.77;;;1.40;;
16031;SDS011;8120;48.308;8.914;2023-07-29T04:09:07;2.30;;;1.60;;
16031;SDS011;8120;48.308;8.914;2023-07-29T04:11:35;2.07;;;1.43;;
16031;SDS011;8120;48.308;8.914;2023-07-29T04:14:03;2.23;;;1.60;;
16031;SDS011;8120;48.308;8.914;2023-07-29T04:16:33;2.63;;;1.57;;
16031;SDS011;8120;48.308;8.914;2023-07-29T04:19:01;2.13;;;1.67;;
16031;SDS011;8120;48.308;8.914;2023-07-29T04:21:29;3.30;;;1.60;;
16031;SDS011;8120;48.308;8.914;2023-07-29T04:23:57;4.87;;;1.97;;
16031;SDS011;8120;48.308;8.914;2023-07-29T04:26:25;2.93;;;1.77;;
16031;SDS011;8120;48.308;8.914;2023-07-29T04:28:52;5.13;;;2.73;;
16031;SDS011;8120;48.308;8.914;2023-07-29T04:31:20;5.47;;;2.30;;
16031;SDS011;8120;48.308;8.914;2023-07-29T04:33:50;2.23;;;1.80;;
16031;SDS011;8120;48.308;8.914;2023-07-29T04:36:17;5.03;;;1.70;;
16031;SDS011;8120;48.308;8.914;2023-07-29T04:38:45;2.50;;;1.87;;
16031;SDS011;8120;48.308;8.914;2023-07-29T04:41:13;2.10;;;1.90;;
16031;SDS011;8120;48.308;8.914;2023-07-29T04:43:41;1.97;;;1.77;;
16031;SDS011;8120;48.308;8.914;2023-07-29T04:46:10;2.77;;;1.53;;
16031;SDS011;8120;48.308;8.914;2023-07-29T04:48:38;2.60;;;2.10;;
16031;SDS011;8120;48.308;8.914;2023-07-29T04:51:07;2.27;;;1.90;;
16031;SDS011;8120;48.308;8.914;2023-07-29T04:53:35;3.00;;;1.80;;
16031;SDS011;8120;48.308;8.914;2023-07-29T04:56:04;2.83;;;2.00;;
16031;SDS011;8120;48.308;8.914;2023-07-29T04:58:32;2.63;;;1.70;;
16031;SDS011;8120;48.308;8.914;2023-07-29T05:01:01;3.77;;;2.30;;
16031;SDS011;8120;48.308;8.914;2023-07-29T05:03:29;3.17;;;1.93;;
16031;SDS011;8120;48.308;8.914;2023-07-29T05:05:57;2.90;;;2.13;;
16031;SDS011;8120;48.308;8.914;2023-07-29T05:08:27;3.67;;;2.10;;
16031;SDS011;8120;48.308;8.914;2023-07-29T05:10:55;3.13;;;1.80;;
16031;SDS011;8120;48.308;8.914;2023-07-29T05:13:23;3.23;;;1.90;;
16031;SDS011;8120;48.308;8.914;2023-07-29T05:15:51;2.47;;;2.03;;
16031;SDS011;8120;48.308;8.914;2023-07-29T05:18:19;3.40;;;2.07;;
16031;SDS011;8120;48.308;8.914;2023-07-29T05:20:47;2.07;;;1.47;;
16031;SDS011;8120;48.308;8.914;2023-07-29T05:23:15;2.20;;;1.80;;
16031;SDS011;8120;48.308;8.914;2023-07-29T05:25:44;3.07;;;1.80;;
16031;SDS011;8120;48.308;8.914;2023-07-29T05:28:12;3.13;;;1.90;;
16031;SDS011;8120;48.308;8.914;2023-07-29T05:30:39;2.70;;;1.90;;
16031;SDS011;8120;48.308;8.914;2023-07-29T05:33:07;2.67;;;1.90;;
16031;SDS011;8120;48.308;8.914;2023-07-29T05:35:35;4.03;;;2.00;;
16031;SDS011;8120;48.308;8.914;2023-07-29T05:38:03;3.87;;;2.00;;
16031;SDS011;8120;48.308;8.914;2023-07-29T05:40:34;2.60;;;2.20;;
16031;SDS011;8120;48.308;8.914;2023-07-29T05:43:03;3.10;;;1.90;;
16031;SDS011;8120;48.308;8.914;2023-07-29T05:45:31;3.27;;;1.93;;
16031;SDS011;8120;48.308;8.914;2023-07-29T05:47:59;2.43;;;1.77;;
16031;SDS011;8120;48.308;8.914;2023-07-29T05:50:27;2.23;;;1.80;;
16031;SDS011;8120;48.308;8.914;2023-07-29T05:52:54;3.07;;;2.03;;
16031;SDS011;8120;48.308;8.914;2023-07-29T05:55:22;2.60;;;1.80;;
16031;SDS011;8120;48.308;8.914;2023-07-29T05:57:50;3.77;;;2.33;;
16031;SDS011;8120;48.308;8.914;2023-07-29T06:00:20;3.53;;;1.80;;
16031;SDS011;8120;48.308;8.914;2023-07-29T06:02:48;4.93;;;1.77;;
16031;SDS011;8120;48.308;8.914;2023-07-29T06:05:15;2.77;;;2.00;;
16031;SDS011;8120;48.308;8.914;2023-07-29T06:07:43;1.93;;;1.70;;
16031;SDS011;8120;48.308;8.914;2023-07-29T06:10:12;3.73;;;2.40;;
16031;SDS011;8120;48.308;8.914;2023-07-29T06:12:43;3.07;;;1.90;;
16031;SDS011;8120;48.308;8.914;2023-07-29T06:15:11;2.67;;;1.70;;
16031;SDS011;8120;48.308;8.914;2023-07-29T06:17:41;3.17;;;2.10;;
16031;SDS011;8120;48.308;8.914;2023-07-29T06:20:09;3.50;;;2.13;;
16031;SDS011;8120;48.308;8.914;2023-07-29T06:22:37;2.35;;;1.85;;
16031;SDS011;8120;48.308;8.914;2023-07-29T06:25:05;11.40;;;5.10;;
16031;SDS011;8120;48.308;8.914;2023-07-29T06:27:33;10.15;;;5.13;;
16031;SDS011;8120;48.308;8.914;2023-07-29T06:30:01;4.47;;;2.30;;
16031;SDS011;8120;48.308;8.914;2023-07-29T06:32:29;4.65;;;2.00;;
16031;SDS011;8120;48.308;8.914;2023-07-29T06:34:59;3.70;;;2.22;;
16031;SDS011;8120;48.308;8.914;2023-07-29T06:37:27;5.93;;;2.90;;
16031;SDS011;8120;48.308;8.914;2023-07-29T06:39:55;6.17;;;2.80;;
16031;SDS011;8120;48.308;8.914;2023-07-29T06:42:22;5.33;;;2.80;;
16031;SDS011;8120;48.308;8.914;2023-07-29T06:44:50;4.97;;;3.00;;
16031;SDS011;8120;48.308;8.914;2023-07-29T06:47:18;5.47;;;2.20;;
16031;SDS011;8120;48.308;8.914;2023-07-29T06:49:46;7.17;;;2.60;;
16031;SDS011;8120;48.308;8.914;2023-07-29T06:52:15;9.57;;;2.50;;
16031;SDS011;8120;48.308;8.914;2023-07-29T06:54:43;6.80;;;2.17;;
16031;SDS011;8120;48.308;8.914;2023-07-29T06:57:11;4.67;;;2.27;;
16031;SDS011;8120;48.308;8.914;2023-07-29T06:59:39;4.90;;;1.53;;
16031;SDS011;8120;48.308;8.914;2023-07-29T07:02:06;2.33;;;1.27;;
16031;SDS011;8120;48.308;8.914;2023-07-29T07:04:34;1.53;;;1.20;;
16031;SDS011;8120;48.308;8.914;2023-07-29T07:07:04;2.27;;;1.40;;
16031;SDS011;8120;48.308;8.914;2023-07-29T07:09:33;4.37;;;2.37;;
16031;SDS011;8120;48.308;8.914;2023-07-29T07:12:01;3.80;;;2.20;;
16031;SDS011;8120;48.308;8.914;2023-07-29T07:14:29;4.83;;;2.27;;
16031;SDS011;8120;48.308;8.914;2023-07-29T07:16:57;3.43;;;2.00;;
16031;SDS011;8120;48.308;8.914;2023-07-29T07:19:25;5.23;;;2.40;;
16031;SDS011;8120;48.308;8.914;2023-07-29T07:21:53;7.90;;;2.60;;
16031;SDS011;8120;48.308;8.914;2023-07-29T07:24:21;4.10;;;2.20;;
16031;SDS011;8120;48.308;8.914;2023-07-29T07:26:50;3.63;;;2.23;;
16031;SDS011;8120;48.308;8.914;2023-07-29T07:29:18;4.50;;;2.00;;
16031;SDS011;8120;48.308;8.914;2023-07-29T07:31:49;4.13;;;2.90;;
16031;SDS011;8120;48.308;8.914;2023-07-29T07:34:18;5.07;;;2.37;;
16031;SDS011;8120;48.308;8.914;2023-07-29T07:36:46;3.03;;;2.23;;
16031;SDS011;8120;48.308;8.914;2023-07-29T07:39:14;3.87;;;2.53;;
16031;SDS011;8120;48.308;8.914;2023-07-29T07:41:42;3.57;;;2.50;;
16031;SDS011;8120;48.308;8.914;2023-07-29T07:44:12;6.57;;;2.93;;
16031;SDS011;8120;48.308;8.914;2023-07-29T07:46:43;5.27;;;2.80;;
16031;SDS011;8120;48.308;8.914;2023-07-29T07:49:11;4.00;;;2.67;;
16031;SDS011;8120;48.308;8.914;2023-07-29T07:51:40;5.63;;;2.80;;
16031;SDS011;8120;48.308;8.914;2023-07-29T07:54:07;3.57;;;2.70;;
16031;SDS011;8120;48.308;8.914;2023-07-29T07:56:35;4.47;;;2.80;;
16031;SDS011;8120;48.308;8.914;2023-07-29T07:59:04;5.50;;;2.77;;
16031;SDS011;8120;48.308;8.914;2023-07-29T08:01:35;10.03;;;3.00;;
16031;SDS011;8120;48.308;8.914;2023-07-29T08:04:03;5.07;;;3.00;;
16031;SDS011;8120;48.308;8.914;2023-07-29T08:06:31;5.83;;;2.97;;
16031;SDS011;8120;48.308;8.914;2023-07-29T08:09:00;4.30;;;2.63;;
16031;SDS011;8120;48.308;8.914;2023-07-29T08:11:28;5.17;;;2.33;;
16031;SDS011;8120;48.308;8.914;2023-07-29T08:13:58;3.87;;;2.40;;
16031;SDS011;8120;48.308;8.914;2023-07-29T08:16:25;4.40;;;2.50;;
16031;SDS011;8120;48.308;8.914;2023-07-29T08:18:55;3.47;;;2.30;;
16031;SDS011;8120;48.308;8.914;2023-07-29T08:21:23;4.43;;;2.80;;
16031;SDS011;8120;48.308;8.914;2023-07-29T08:23:50;6.10;;;2.87;;
16031;SDS011;8120;48.308;8.914;2023-07-29T08:26:18;4.50;;;2.87;;
16031;SDS011;8120;48.308;8.914;2023-07-29T08:28:47;3.17;;;2.20;;
16031;SDS011;8120;48.308;8.914;2023-07-29T08:31:20;3.17;;;1.83;;
16031;SDS011;8120;48.308;8.914;2023-07-29T08:33:47;2.33;;;1.87;;
16031;SDS011;8120;48.308;8.914;2023-07-29T08:36:17;2.37;;;1.97;;
16031;SDS011;8120;48.308;8.914;2023-07-29T08:38:45;2.30;;;1.83;;
16031;SDS011;8120;48.308;8.914;2023-07-29T08:41:13;2.03;;;1.50;;
16031;SDS011;8120;48.308;8.914;2023-07-29T08:43:44;1.95;;;1.52;;
16031;SDS011;8120;48.308;8.914;2023-07-29T08:46:20;3.03;;;1.52;;
16031;SDS011;8120;48.308;8.914;2023-07-29T08:48:48;2.30;;;1.63;;
16031;SDS011;8120;48.308;8.914;2023-07-29T08:51:18;2.47;;;2.00;;
16031;SDS011;8120;48.308;8.914;2023-07-29T08:53:48;2.53;;;2.10;;
16031;SDS011;8120;48.308;8.914;2023-07-29T08:56:16;2.22;;;1.70;;
16031;SDS011;8120;48.308;8.914;2023-07-29T08:58:45;5.40;;;1.80;;
16031;SDS011;8120;48.308;8.914;2023-07-29T09:01:13;3.20;;;1.70;;
16031;SDS011;8120;48.308;8.914;2023-07-29T09:03:42;5.22;;;1.92;;
16031;SDS011;8120;48.308;8.914;2023-07-29T09:06:10;2.10;;;1.73;;
16031;SDS011;8120;48.308;8.914;2023-07-29T09:08:42;3.78;;;1.95;;
16031;SDS011;8120;48.308;8.914;2023-07-29T09:11:12;4.05;;;2.10;;
16031;SDS011;8120;48.308;8.914;2023-07-29T09:13:42;2.63;;;1.92;;
16031;SDS011;8120;48.308;8.914;2023-07-29T09:16:10;3.13;;;1.83;;
16031;SDS011;8120;48.308;8.914;2023-07-29T09:18:38;3.15;;;2.00;;
16031;SDS011;8120;48.308;8.914;2023-07-29T09:21:06;3.28;;;2.10;;
16031;SDS011;8120;48.308;8.914;2023-07-29T09:23:41;3.28;;;2.15;;
16031;SDS011;8120;48.308;8.914;2023-07-29T09:26:11;2.78;;;2.20;;
16031;SDS011;8120;48.308;8.914;2023-07-29T09:28:39;2.10;;;1.85;;
16031;SDS011;8120;48.308;8.914;2023-07-29T09:31:11;3.60;;;1.70;;
16031;SDS011;8120;48.308;8.914;2023-07-29T09:33:47;3.92;;;2.38;;
16031;SDS011;8120;48.308;8.914;2023-07-29T09:36:14;3.80;;;2.30;;
16031;SDS011;8120;48.308;8.914;2023-07-29T09:38:45;5.20;;;2.30;;
16031;SDS011;8120;48.308;8.914;2023-07-29T09:41:13;5.07;;;2.50;;
16031;SDS011;8120;48.308;8.914;2023-07-29T09:43:42;4.30;;;2.47;;
16031;SDS011;8120;48.308;8.914;2023-07-29T09:46:10;3.87;;;2.40;;
16031;SDS011;8120;48.308;8.914;2023-07-29T09:48:38;5.83;;;2.50;;
16031;SDS011;8120;48.308;8.914;2023-07-29T09:51:11;5.33;;;2.43;;
16031;SDS011;8120;48.308;8.914;2023-07-29T09:53:40;3.70;;;2.50;;
16031;SDS011;8120;48.308;8.914;2023-07-29T09:56:14;4.37;;;2.20;;
16031;SDS011;8120;48.308;8.914;2023-07-29T09:58:42;3.50;;;1.97;;
16031;SDS011;8120;48.308;8.914;2023-07-29T10:01:11;3.77;;;2.70;;
16031;SDS011;8120;48.308;8.914;2023-07-29T10:03:40;5.00;;;2.43;;
16031;SDS011;8120;48.308;8.914;2023-07-29T10:06:08;3.50;;;2.15;;
16031;SDS011;8120;48.308;8.914;2023-07-29T10:08:36;3.65;;;2.13;;
16031;SDS011;8120;48.308;8.914;2023-07-29T10:11:05;4.32;;;2.17;;
16031;SDS011;8120;48.308;8.914;2023-07-29T10:13:36;3.47;;;2.50;;
16031;SDS011;8120;48.308;8.914;2023-07-29T10:16:04;5.35;;;2.90;;
16031;SDS011;8120;48.308;8.914;2023-07-29T10:18:32;4.65;;;2.75;;
16031;SDS011;8120;48.308;8.914;2023-07-29T10:21:01;3.88;;;2.63;;
16031;SDS011;8120;48.308;8.914;2023-07-29T10:23:38;5.43;;;2.42;;
16031;SDS011;8120;48.308;8.914;2023-07-29T10:26:10;3.90;;;2.40;;
16031;SDS011;8120;48.308;8.914;2023-07-29T10:28:40;3.35;;;2.50;;
16031;SDS011;8120;48.308;8.914;2023-07-29T10:31:14;3.05;;;2.30;;
16031;SDS011;8120;48.308;8.914;2023-07-29T10:33:43;3.40;;;2.40;;
16031;SDS011;8120;48.308;8.914;2023-07-29T10:36:12;4.03;;;2.25;;
16031;SDS011;8120;48.308;8.914;2023-07-29T10:38:41;4.70;;;2.60;;
16031;SDS011;8120;48.308;8.914;2023-07-29T10:41:09;3.38;;;2.33;;
16031;SDS011;8120;48.308;8.914;2023-07-29T10:43:37;3.10;;;2.22;;
16031;SDS011;8120;48.308;8.914;2023-07-29T10:46:15;3.03;;;2.28;;
16031;SDS011;8120;48.308;8.914;2023-07-29T10:48:44;3.08;;;2.60;;
16031;SDS011;8120;48.308;8.914;2023-07-29T10:51:23;3.08;;;2.20;;
16031;SDS011;8120;48.308;8.914;2023-07-29T10:53:54;3.35;;;2.30;;
16031;SDS011;8120;48.308;8.914;2023-07-29T10:56:30;3.45;;;2.03;;
16031;SDS011;8120;48.308;8.914;2023-07-29T10:58:59;2.42;;;1.88;;
16031;SDS011;8120;48.308;8.914;2023-07-29T11:01:54;2.90;;;2.20;;
16031;SDS011;8120;48.308;8.914;2023-07-29T11:04:24;3.47;;;2.42;;
16031;SDS011;8120;48.308;8.914;2023-07-29T11:09:56;2.95;;;2.42;;
16031;SDS011;8120;48.308;8.914;2023-07-29T11:12:35;3.33;;;2.30;;
16031;SDS011;8120;48.308;8.914;2023-07-29T11:15:06;3.22;;;2.40;;
16031;SDS011;8120;48.308;8.914;2023-07-29T11:17:41;3.80;;;2.30;;
16031;SDS011;8120;48.308;8.914;2023-07-29T11:20:11;2.80;;;2.25;;
16031;SDS011;8120;48.308;8.914;2023-07-29T11:22:40;4.30;;;2.40;;
16031;SDS011;8120;48.308;8.914;2023-07-29T11:25:09;3.13;;;2.10;;
16031;SDS011;8120;48.308;8.914;2023-07-29T11:27:38;5.43;;;2.55;;
16031;SDS011;8120;48.308;8.914;2023-07-29T11:30:07;2.40;;;1.92;;
16031;SDS011;8120;48.308;8.914;2023-07-29T11:32:37;2.90;;;2.15;;
16031;SDS011;8120;48.308;8.914;2023-07-29T11:35:08;2.90;;;2.13;;
16031;SDS011;8120;48.308;8.914;2023-07-29T11:37:39;3.05;;;2.20;;
16031;SDS011;8120;48.308;8.914;2023-07-29T11:40:07;3.00;;;2.07;;
16031;SDS011;8120;48.308;8.914;2023-07-29T11:42:36;3.57;;;2.20;;
16031;SDS011;8120;48.308;8.914;2023-07-29T11:45:05;3.10;;;2.15;;
16031;SDS011;8120;48.308;8.914;2023-07-29T11:47:34;3.13;;;2.35;;
16031;SDS011;8120;48.308;8.914;2023-07-29T11:50:03;2.63;;;2.10;;
16031;SDS011;8120;48.308;8.914;2023-07-29T11:52:34;2.97;;;2.10;;
16031;SDS011;8120;48.308;8.914;2023-07-29T11:55:04;3.90;;;2.00;;
16031;SDS011;8120;48.308;8.914;2023-07-29T11:57:33;2.58;;;1.90;;
16031;SDS011;8120;48.308;8.914;2023-07-29T12:00:03;3.92;;;2.00;;
16031;SDS011;8120;48.308;8.914;2023-07-29T12:02:33;2.75;;;1.90;;
16031;SDS011;8120;48.308;8.914;2023-07-29T12:05:04;2.45;;;1.90;;
16031;SDS011;8120;48.308;8.914;2023-07-29T12:07:34;2.70;;;2.10;;
16031;SDS011;8120;48.308;8.914;2023-07-29T12:10:02;2.33;;;2.05;;
16031;SDS011;8120;48.308;8.914;2023-07-29T12:12:30;2.30;;;1.98;;
16031;SDS011;8120;48.308;8.914;2023-07-29T12:14:58;3.03;;;2.40;;
16031;SDS011;8120;48.308;8.914;2023-07-29T12:17:26;4.20;;;2.90;;
16031;SDS011;8120;48.308;8.914;2023-07-29T12:19:55;3.13;;;2.17;;
16031;SDS011;8120;48.308;8.914;2023-07-29T12:22:23;2.83;;;2.20;;
16031;SDS011;8120;48.308;8.914;2023-07-29T12:24:53;2.85;;;2.30;;
16031;SDS011;8120;48.308;8.914;2023-07-29T12:27:22;3.72;;;2.33;;
16031;SDS011;8120;48.308;8.914;2023-07-29T12:29:51;3.10;;;2.20;;
16031;SDS011;8120;48.308;8.914;2023-07-29T12:32:20;3.67;;;2.60;;
16031;SDS011;8120;48.308;8.914;2023-07-29T12:34:53;3.65;;;2.88;;
16031;SDS011;8120;48.308;8.914;2023-07-29T12:37:30;4.43;;;2.83;;
16031;SDS011;8120;48.308;8.914;2023-07-29T12:40:01;6.28;;;3.80;;
16031;SDS011;8120;48.308;8.914;2023-07-29T12:42:29;6.75;;;3.55;;
16031;SDS011;8120;48.308;8.914;2023-07-29T12:44:57;4.95;;;3.45;;
16031;SDS011;8120;48.308;8.914;2023-07-29T12:47:25;5.35;;;3.42;;
16031;SDS011;8120;48.308;8.914;2023-07-29T12:49:53;4.68;;;3.13;;
16031;SDS011;8120;48.308;8.914;2023-07-29T12:52:21;4.13;;;3.13;;
16031;SDS011;8120;48.308;8.914;2023-07-29T12:54:49;5.00;;;3.03;;
16031;SDS011;8120;48.308;8.914;2023-07-29T12:57:18;5.25;;;2.60;;
16031;SDS011;8120;48.308;8.914;2023-07-29T12:59:46;3.63;;;2.55;;
16031;SDS011;8120;48.308;8.914;2023-07-29T13:02:13;4.38;;;2.70;;
16031;SDS011;8120;48.308;8.914;2023-07-29T13:04:41;5.63;;;3.17;;
16031;SDS011;8120;48.308;8.914;2023-07-29T13:07:09;3.65;;;2.83;;
16031;SDS011;8120;48.308;8.914;2023-07-29T13:09:37;3.20;;;2.35;;
16031;SDS011;8120;48.308;8.914;2023-07-29T13:12:05;5.00;;;2.65;;
16031;SDS011;8120;48.308;8.914;2023-07-29T13:14:34;3.80;;;2.38;;
16031;SDS011;8120;48.308;8.914;2023-07-29T13:17:02;2.67;;;2.42;;
16031;SDS011;8120;48.308;8.914;2023-07-29T13:19:30;4.00;;;2.65;;
16031;SDS011;8120;48.308;8.914;2023-07-29T13:21:58;3.72;;;2.33;;
16031;SDS011;8120;48.308;8.914;2023-07-29T13:24:28;3.72;;;2.63;;
16031;SDS011;8120;48.308;8.914;2023-07-29T13:26:56;4.35;;;2.75;;
16031;SDS011;8120;48.308;8.914;2023-07-29T13:29:24;3.63;;;2.28;;
16031;SDS011;8120;48.308;8.914;2023-07-29T13:31:53;2.97;;;2.10;;
16031;SDS011;8120;48.308;8.914;2023-07-29T13:34:21;3.03;;;2.53;;
16031;SDS011;8120;48.308;8.914;2023-07-29T13:36:48;2.90;;;2.40;;
16031;SDS011;8120;48.308;8.914;2023-07-29T13:39:16;3.45;;;2.42;;
16031;SDS011;8120;48.308;8.914;2023-07-29T13:41:44;3.80;;;2.55;;
16031;SDS011;8120;48.308;8.914;2023-07-29T13:44:12;2.97;;;2.30;;
16031;SDS011;8120;48.308;8.914;2023-07-29T13:46:40;3.22;;;2.40;;
16031;SDS011;8120;48.308;8.914;2023-07-29T13:49:09;2.40;;;2.20;;
16031;SDS011;8120;48.308;8.914;2023-07-29T13:51:37;2.58;;;2.25;;
16031;SDS011;8120;48.308;8.914;2023-07-29T13:54:05;2.17;;;1.98;;
16031;SDS011;8120;48.308;8.914;2023-07-29T13:56:33;3.47;;;2.20;;
16031;SDS011;8120;48.308;8.914;2023-07-29T13:59:01;3.42;;;2.20;;
16031;SDS011;8120;48.308;8.914;2023-07-29T14:01:29;3.03;;;2.28;;
16031;SDS011;8120;48.308;8.914;2023-07-29T14:03:57;2.95;;;2.15;;
16031;SDS011;8120;48.308;8.914;2023-07-29T14:06:26;6.13;;;2.60;;
16031;SDS011;8120;48.308;8.914;2023-07-29T14:09:11;3.65;;;2.35;;
16031;SDS011;8120;48.308;8.914;2023-07-29T14:11:39;3.80;;;2.33;;
16031;SDS011;8120;48.308;8.914;2023-07-29T14:14:07;3.15;;;2.35;;
16031;SDS011;8120;48.308;8.914;2023-07-29T14:16:35;3.33;;;2.47;;
16031;SDS011;8120;48.308;8.914;2023-07-29T14:19:03;4.35;;;2.33;;
16031;SDS011;8120;48.308;8.914;2023-07-29T14:21:32;6.22;;;2.75;;
16031;SDS011;8120;48.308;8.914;2023-07-29T14:24:00;5.47;;;2.67;;
16031;SDS011;8120;48.308;8.914;2023-07-29T14:26:28;3.15;;;2.38;;
16031;SDS011;8120;48.308;8.914;2023-07-29T14:28:55;3.43;;;1.90;;
16031;SDS011;8120;48.308;8.914;2023-07-29T14:31:23;5.13;;;2.30;;
16031;SDS011;8120;48.308;8.914;2023-07-29T14:33:51;3.10;;;1.93;;
16031;SDS011;8120;48.308;8.914;2023-07-29T14:36:19;3.20;;;2.23;;
16031;SDS011;8120;48.308;8.914;2023-07-29T14:38:48;3.22;;;1.77;;
16031;SDS011;8120;48.308;8.914;2023-07-29T14:41:16;2.95;;;2.03;;
16031;SDS011;8120;48.308;8.914;2023-07-29T14:43:44;4.50;;;2.33;;
16031;SDS011;8120;48.308;8.914;2023-07-29T14:46:12;5.05;;;2.80;;
16031;SDS011;8120;48.308;8.914;2023-07-29T14:48:40;4.40;;;2.70;;
16031;SDS011;8120;48.308;8.914;2023-07-29T14:51:07;4.90;;;3.00;;
16031;SDS011;8120;48.308;8.914;2023-07-29T14:53:35;5.60;;;2.97;;
16031;SDS011;8120;48.308;8.914;2023-07-29T14:56:04;3.80;;;2.63;;
16031;SDS011;8120;48.308;8.914;2023-07-29T14:58:32;5.57;;;2.90;;
16031;SDS011;8120;48.308;8.914;2023-07-29T15:01:00;4.27;;;2.60;;
16031;SDS011;8120;48.308;8.914;2023-07-29T15:03:28;2.67;;;2.20;;
16031;SDS011;8120;48.308;8.914;2023-07-29T15:05:56;3.60;;;2.10;;
16031;SDS011;8120;48.308;8.914;2023-07-29T15:08:25;4.47;;;2.30;;
16031;SDS011;8120;48.308;8.914;2023-07-29T15:10:53;4.50;;;2.60;;
16031;SDS011;8120;48.308;8.914;2023-07-29T15:13:22;2.50;;;1.77;;